createdAt,value
2022-11-29T00:00:24.328Z,11.13
2022-11-29T00:02:54.450Z,11.80
2022-11-29T00:05:26.523Z,11.23
2022-11-29T00:07:54.937Z,12.10
2022-11-29T00:10:23.312Z,12.60
2022-11-29T00:12:51.395Z,10.23
2022-11-29T00:15:19.480Z,10.40
2022-11-29T00:17:51.671Z,13.00
2022-11-29T00:20:23.267Z,11.80
2022-11-29T00:22:51.394Z,10.70
2022-11-29T00:25:20.350Z,11.57
2022-11-29T00:27:51.332Z,11.20
2022-11-29T00:30:21.798Z,10.70
2022-11-29T00:32:51.805Z,12.50
2022-11-29T00:35:19.877Z,12.00
2022-11-29T00:37:50.225Z,11.30
2022-11-29T00:40:20.749Z,12.50
2022-11-29T00:42:49.340Z,10.53
2022-11-29T00:45:17.790Z,11.10
2022-11-29T00:47:46.385Z,11.57
2022-11-29T00:50:16.075Z,10.37
2022-11-29T00:52:46.145Z,12.07
2022-11-29T00:55:14.862Z,10.63
2022-11-29T00:57:47.914Z,10.87
2022-11-29T01:00:17.264Z,11.30
2022-11-29T01:02:46.154Z,10.17
2022-11-29T01:05:17.757Z,10.60
2022-11-29T01:07:47.069Z,11.00
2022-11-29T01:10:17.127Z,12.50
2022-11-29T01:12:45.310Z,11.30
2022-11-29T01:15:14.044Z,10.87
2022-11-29T01:17:42.147Z,11.20
2022-11-29T01:20:17.071Z,10.40
2022-11-29T01:22:49.412Z,12.80
2022-11-29T01:25:19.308Z,11.90
2022-11-29T01:27:48.134Z,11.57
2022-11-29T01:30:18.759Z,11.10
2022-11-29T01:32:47.256Z,11.53
2022-11-29T01:35:18.551Z,12.57
2022-11-29T01:37:51.963Z,11.10
2022-11-29T01:40:20.276Z,11.67
2022-11-29T01:42:51.440Z,10.77
2022-11-29T01:45:24.061Z,11.20
2022-11-29T01:47:56.986Z,11.20
2022-11-29T01:50:27.034Z,10.80
2022-11-29T01:52:57.382Z,11.63
2022-11-29T01:55:27.442Z,11.70
2022-11-29T01:57:56.299Z,11.60
2022-11-29T02:00:25.529Z,11.80
2022-11-29T02:03:00.777Z,11.20
2022-11-29T02:05:36.256Z,12.03
2022-11-29T02:08:04.835Z,10.73
2022-11-29T02:10:45.501Z,11.40
2022-11-29T02:13:28.002Z,11.90
2022-11-29T02:16:04.943Z,11.00
2022-11-29T02:18:51.928Z,11.73
2022-11-29T02:21:40.828Z,11.57
2022-11-29T02:24:45.636Z,10.93
2022-11-29T02:27:52.180Z,11.80
2022-11-29T02:30:26.010Z,12.60
2022-11-29T02:33:27.709Z,11.90
2022-11-29T02:36:30.106Z,11.03
2022-11-29T02:39:15.626Z,11.23
2022-11-29T02:42:06.740Z,12.23
2022-11-29T02:44:53.791Z,10.43
2022-11-29T02:47:30.357Z,12.20
2022-11-29T02:50:14.186Z,10.87
2022-11-29T02:52:54.536Z,11.03
2022-11-29T02:55:30.665Z,12.00
2022-11-29T02:58:05.058Z,11.60
2022-11-29T03:00:38.151Z,11.83
2022-11-29T03:03:14.914Z,11.60
2022-11-29T03:05:50.937Z,12.20
2022-11-29T03:08:29.258Z,11.60
2022-11-29T03:11:04.679Z,12.07
2022-11-29T03:13:47.600Z,11.40
2022-11-29T03:16:29.722Z,11.70
2022-11-29T03:19:07.139Z,12.60
2022-11-29T03:21:47.191Z,11.50
2022-11-29T03:24:27.223Z,12.00
2022-11-29T03:27:03.267Z,12.27
2022-11-29T03:29:41.482Z,11.97
2022-11-29T03:32:17.438Z,11.40
2022-11-29T03:34:57.900Z,11.57
2022-11-29T03:37:31.369Z,11.97
2022-11-29T03:40:07.641Z,11.67
2022-11-29T03:42:43.819Z,12.20
2022-11-29T03:45:18.898Z,10.87
2022-11-29T03:47:58.949Z,11.20
2022-11-29T03:50:35.167Z,11.87
2022-11-29T03:53:14.858Z,12.17
2022-11-29T03:56:05.171Z,10.67
2022-11-29T03:58:55.024Z,11.00
2022-11-29T04:01:48.189Z,11.00
2022-11-29T04:04:49.434Z,11.80
2022-11-29T04:07:35.702Z,11.13
2022-11-29T04:10:22.680Z,11.87
2022-11-29T04:13:11.055Z,11.10
2022-11-29T04:16:03.166Z,12.90
2022-11-29T04:19:05.235Z,11.00
2022-11-29T04:21:53.205Z,11.03
2022-11-29T04:24:51.980Z,12.20
2022-11-29T04:27:45.360Z,11.83
2022-11-29T04:30:21.402Z,10.93
2022-11-29T04:33:29.670Z,11.87
2022-11-29T04:36:27.768Z,11.67
2022-11-29T04:39:16.646Z,11.67
2022-11-29T04:42:14.869Z,12.17
2022-11-29T04:44:56.991Z,13.00
2022-11-29T04:47:52.379Z,12.17
2022-11-29T04:50:39.202Z,11.53
2022-11-29T04:53:29.945Z,11.20
2022-11-29T04:56:07.986Z,11.50
2022-11-29T04:58:41.752Z,11.63
2022-11-29T05:01:21.068Z,11.20
2022-11-29T05:03:58.176Z,10.87
2022-11-29T05:06:37.121Z,11.50
2022-11-29T05:09:16.843Z,11.17
2022-11-29T05:11:54.407Z,11.73
2022-11-29T05:14:36.804Z,11.20
2022-11-29T05:17:26.069Z,11.00
2022-11-29T05:20:09.535Z,11.00
2022-11-29T05:22:47.401Z,11.50
2022-11-29T05:25:31.585Z,10.97
2022-11-29T05:28:10.209Z,12.03
2022-11-29T05:30:55.132Z,11.10
2022-11-29T05:33:37.622Z,11.00
2022-11-29T05:36:24.964Z,10.60
2022-11-29T05:39:07.262Z,11.73
2022-11-29T05:41:52.536Z,10.60
2022-11-29T05:44:32.752Z,12.40
2022-11-29T05:47:10.036Z,10.27
2022-11-29T05:49:44.722Z,10.73
2022-11-29T05:52:24.490Z,10.70
2022-11-29T05:55:07.339Z,11.00
2022-11-29T05:57:44.569Z,11.27
2022-11-29T06:00:16.773Z,10.23
2022-11-29T06:02:59.105Z,11.70
2022-11-29T06:05:36.726Z,11.30
2022-11-29T06:08:17.663Z,12.13
2022-11-29T06:10:57.682Z,12.90
2022-11-29T06:13:38.306Z,11.20
2022-11-29T06:16:32.332Z,11.03
2022-11-29T06:19:28.125Z,10.73
2022-11-29T06:22:11.669Z,11.10
2022-11-29T06:24:56.428Z,12.10
2022-11-29T06:27:44.548Z,12.33
2022-11-29T06:30:16.039Z,11.93
2022-11-29T06:32:51.841Z,11.00
2022-11-29T06:35:37.588Z,11.83
2022-11-29T06:38:13.728Z,12.40
2022-11-29T06:40:46.410Z,11.50
2022-11-29T06:43:15.689Z,11.90
2022-11-29T06:45:50.371Z,11.80
2022-11-29T06:48:25.867Z,12.50
2022-11-29T06:51:01.384Z,12.13
2022-11-29T06:53:39.774Z,12.40
2022-11-29T06:56:20.599Z,12.73
2022-11-29T06:59:00.893Z,11.97
2022-11-29T07:01:40.579Z,12.10
2022-11-29T07:04:31.258Z,12.60
2022-11-29T07:07:01.059Z,11.23
2022-11-29T07:09:35.046Z,12.60
2022-11-29T07:12:08.396Z,12.10
2022-11-29T07:14:37.326Z,12.07
2022-11-29T07:17:11.326Z,11.77
2022-11-29T07:19:52.946Z,11.53
2022-11-29T07:22:41.682Z,12.90
2022-11-29T07:25:21.302Z,12.77
2022-11-29T07:28:04.168Z,11.40
2022-11-29T07:30:43.010Z,12.03
2022-11-29T07:33:19.874Z,10.87
2022-11-29T07:35:56.284Z,11.17
2022-11-29T07:38:32.950Z,11.17
2022-11-29T07:41:13.061Z,10.80
2022-11-29T07:43:52.750Z,12.00
2022-11-29T07:46:23.891Z,11.93
2022-11-29T07:48:54.133Z,10.23
2022-11-29T07:51:22.687Z,10.70
2022-11-29T07:53:50.777Z,11.70
2022-11-29T07:56:19.192Z,11.03
2022-11-29T07:58:49.280Z,10.27
2022-11-29T08:01:17.727Z,10.87
2022-11-29T08:03:46.203Z,11.90
2022-11-29T08:06:15.020Z,11.13
2022-11-29T08:08:44.383Z,10.80
2022-11-29T08:11:13.752Z,11.47
2022-11-29T08:13:44.023Z,11.20
2022-11-29T08:16:20.497Z,10.07
2022-11-29T08:18:49.686Z,10.93
2022-11-29T08:21:20.503Z,11.13
2022-11-29T08:23:50.779Z,11.10
2022-11-29T08:26:26.920Z,10.50
2022-11-29T08:28:59.648Z,11.20
2022-11-29T08:31:32.311Z,12.30
2022-11-29T08:34:00.814Z,10.57
2022-11-29T08:36:29.838Z,11.07
2022-11-29T08:39:04.709Z,10.70
2022-11-29T08:41:36.262Z,10.30
2022-11-29T08:44:05.738Z,11.30
2022-11-29T08:46:52.874Z,10.43
2022-11-29T08:49:23.669Z,10.47
2022-11-29T08:51:53.024Z,11.27
2022-11-29T08:54:20.019Z,12.93
2022-11-29T09:00:09.679Z,12.47
2022-11-29T09:02:39.236Z,13.03
2022-11-29T09:05:10.184Z,12.97
2022-11-29T09:07:42.181Z,13.53
2022-11-29T09:10:12.227Z,12.93
2022-11-29T09:12:41.387Z,14.60
2022-11-29T09:15:12.053Z,15.50
2022-11-29T09:17:44.610Z,13.40
2022-11-29T09:20:13.618Z,14.60
2022-11-29T09:22:46.734Z,13.40
2022-11-29T09:25:16.119Z,14.97
2022-11-29T09:27:44.488Z,13.30
2022-11-29T09:30:19.279Z,12.70
2022-11-29T09:32:52.834Z,12.00
2022-11-29T09:35:22.104Z,14.70
2022-11-29T09:37:51.740Z,14.37
2022-11-29T09:40:26.048Z,12.50
2022-11-29T09:43:01.147Z,12.93
2022-11-29T09:45:33.845Z,13.07
2022-11-29T09:48:27.995Z,12.67
2022-11-29T09:51:10.359Z,12.77
2022-11-29T09:53:56.491Z,14.30
2022-11-29T09:56:34.922Z,13.47
2022-11-29T09:59:06.014Z,14.27
2022-11-29T10:01:39.373Z,13.40
2022-11-29T10:04:17.272Z,12.50
2022-11-29T10:06:55.609Z,12.63
2022-11-29T10:09:33.561Z,12.63
2022-11-29T10:12:13.886Z,11.93
2022-11-29T10:14:52.246Z,12.47
2022-11-29T10:17:38.158Z,12.87
2022-11-29T10:20:13.730Z,11.83
2022-11-29T10:22:53.543Z,13.17
2022-11-29T10:25:26.671Z,13.43
2022-11-29T10:27:55.939Z,14.23
2022-11-29T10:30:24.602Z,13.40
2022-11-29T10:32:59.226Z,13.50
2022-11-29T10:35:30.418Z,13.13
2022-11-29T10:40:54.263Z,12.37
2022-11-29T10:43:24.994Z,15.07
2022-11-29T10:45:56.332Z,15.07
2022-11-29T10:48:32.104Z,15.60
2022-11-29T10:51:05.301Z,14.30
2022-11-29T10:53:38.610Z,13.97
2022-11-29T10:56:09.466Z,15.80
2022-11-29T10:58:37.643Z,15.97
2022-11-29T11:01:12.126Z,15.80
2022-11-29T11:03:48.945Z,15.10
2022-11-29T11:06:26.417Z,15.10
2022-11-29T11:08:57.567Z,15.90
2022-11-29T11:11:30.747Z,14.50
2022-11-29T11:14:01.498Z,15.43
2022-11-29T11:16:36.754Z,15.63
2022-11-29T11:19:28.314Z,14.33
2022-11-29T11:21:59.984Z,15.27
2022-11-29T11:24:31.234Z,15.37
2022-11-29T11:27:00.456Z,16.00
2022-11-29T11:29:36.621Z,15.67
2022-11-29T11:32:09.168Z,16.47
2022-11-29T11:34:52.741Z,17.87
2022-11-29T11:37:26.913Z,17.03
2022-11-29T11:39:57.506Z,16.40
2022-11-29T11:42:40.890Z,16.80
2022-11-29T11:45:31.785Z,17.57
2022-11-29T11:48:03.545Z,16.90
2022-11-29T11:50:34.900Z,17.53
2022-11-29T11:53:08.539Z,17.10
2022-11-29T11:55:40.765Z,16.70
2022-11-29T11:58:18.479Z,15.80
2022-11-29T12:01:05.737Z,16.83
2022-11-29T12:03:39.387Z,15.63
2022-11-29T12:06:27.620Z,16.87
2022-11-29T12:09:03.700Z,17.80
2022-11-29T12:11:42.915Z,17.93
2022-11-29T12:14:20.036Z,15.87
2022-11-29T12:16:51.093Z,15.17
2022-11-29T12:19:24.643Z,15.77
2022-11-29T12:22:00.709Z,16.60
2022-11-29T12:24:36.787Z,14.97
2022-11-29T12:27:12.179Z,15.30
2022-11-29T12:29:41.710Z,15.30
2022-11-29T12:32:25.868Z,16.30
2022-11-29T12:35:14.774Z,15.27
2022-11-29T12:37:56.803Z,14.77
2022-11-29T12:40:38.452Z,16.10
2022-11-29T12:43:18.553Z,15.63
2022-11-29T12:45:54.638Z,15.57
2022-11-29T12:48:35.209Z,15.80
2022-11-29T12:51:13.710Z,18.30
2022-11-29T12:53:57.064Z,18.60
2022-11-29T12:56:38.467Z,17.70
2022-11-29T12:59:27.242Z,15.17
2022-11-29T13:02:21.688Z,16.97
2022-11-29T13:05:15.254Z,17.37
2022-11-29T13:08:00.641Z,17.43
2022-11-29T13:10:53.421Z,16.97
2022-11-29T13:13:40.008Z,15.80
2022-11-29T13:16:22.983Z,15.23
2022-11-29T13:19:03.804Z,15.37
2022-11-29T13:21:41.602Z,15.10
2022-11-29T13:24:17.722Z,15.57
2022-11-29T13:26:47.447Z,15.03
2022-11-29T13:29:20.024Z,13.87
2022-11-29T13:31:52.453Z,13.10
2022-11-29T13:34:27.045Z,12.60
2022-11-29T13:37:08.929Z,12.20
2022-11-29T13:39:52.178Z,12.30
2022-11-29T13:42:29.232Z,12.10
2022-11-29T13:45:05.659Z,12.00
2022-11-29T13:47:48.790Z,11.47
2022-11-29T13:50:46.566Z,11.20
2022-11-29T13:53:18.933Z,12.80
2022-11-29T13:56:00.213Z,12.80
2022-11-29T13:58:41.624Z,14.00
2022-11-29T14:01:17.181Z,13.77
2022-11-29T14:04:01.673Z,13.80
2022-11-29T14:06:35.199Z,15.00
2022-11-29T14:09:29.651Z,12.60
2022-11-29T14:12:07.566Z,13.57
2022-11-29T14:14:49.682Z,14.00
2022-11-29T14:18:13.424Z,13.70
2022-11-29T14:20:55.394Z,13.40
2022-11-29T14:23:41.613Z,12.90
2022-11-29T14:26:29.167Z,12.73
2022-11-29T14:28:59.392Z,12.57
2022-11-29T14:31:54.207Z,13.70
2022-11-29T14:34:45.137Z,12.10
2022-11-29T14:37:37.310Z,13.90
2022-11-29T14:40:22.001Z,13.57
2022-11-29T14:42:52.833Z,13.70
2022-11-29T14:45:31.847Z,13.00
2022-11-29T14:48:01.786Z,11.70
2022-11-29T14:50:36.961Z,13.07
2022-11-29T14:53:28.575Z,14.40
2022-11-29T14:56:31.537Z,12.43
2022-11-29T14:59:33.091Z,13.07
2022-11-29T15:02:05.520Z,13.60
2022-11-29T15:04:38.148Z,12.63
2022-11-29T15:07:08.686Z,12.30
2022-11-29T15:09:39.474Z,13.70
2022-11-29T15:12:11.320Z,12.27
2022-11-29T15:14:50.755Z,13.23
2022-11-29T15:17:28.830Z,13.73
2022-11-29T15:20:36.249Z,13.10
2022-11-29T15:23:07.726Z,13.97
2022-11-29T15:25:47.511Z,12.63
2022-11-29T15:28:23.765Z,13.20
2022-11-29T15:31:04.029Z,12.50
2022-11-29T15:33:38.016Z,14.73
2022-11-29T15:36:12.490Z,14.40
2022-11-29T15:38:45.639Z,13.67
2022-11-29T15:41:23.330Z,14.50
2022-11-29T15:43:55.177Z,12.80
2022-11-29T15:46:27.947Z,12.10
2022-11-29T15:48:56.881Z,12.53
2022-11-29T15:51:31.282Z,13.13
2022-11-29T15:54:12.706Z,13.77
2022-11-29T15:56:48.442Z,12.70
2022-11-29T15:59:23.545Z,12.90
2022-11-29T16:01:57.339Z,11.60
2022-11-29T16:04:27.196Z,12.90
2022-11-29T16:06:58.907Z,12.33
2022-11-29T16:09:35.935Z,12.07
2022-11-29T16:12:13.327Z,13.07
2022-11-29T16:14:50.662Z,12.60
2022-11-29T16:17:20.091Z,12.90
2022-11-29T16:19:49.324Z,14.30
2022-11-29T16:22:24.303Z,13.03
2022-11-29T16:25:01.965Z,12.23
2022-11-29T16:27:37.900Z,13.00
2022-11-29T16:30:07.938Z,12.57
2022-11-29T16:32:39.209Z,12.93
2022-11-29T16:35:13.861Z,11.03
2022-11-29T16:37:46.930Z,11.80
2022-11-29T16:40:26.076Z,12.23
2022-11-29T16:43:24.097Z,11.43
2022-11-29T16:46:32.356Z,12.27
2022-11-29T16:49:04.114Z,12.60
2022-11-29T16:51:39.864Z,12.00
2022-11-29T16:54:33.825Z,12.47
2022-11-29T16:57:05.707Z,10.70
2022-11-29T16:59:36.488Z,13.10
2022-11-29T17:02:07.300Z,12.00
2022-11-29T17:04:36.512Z,12.23
2022-11-29T17:07:10.523Z,11.80
2022-11-29T17:09:40.656Z,11.77
2022-11-29T17:12:14.061Z,11.70
2022-11-29T17:14:44.251Z,11.57
2022-11-29T17:17:15.058Z,11.90
2022-11-29T17:19:46.170Z,11.27
2022-11-29T17:22:15.373Z,12.40
2022-11-29T17:24:47.980Z,11.63
2022-11-29T17:27:20.844Z,11.37
2022-11-29T17:29:50.277Z,11.90
2022-11-29T17:32:26.363Z,10.70
2022-11-29T17:34:58.196Z,11.40
2022-11-29T17:37:26.479Z,12.53
2022-11-29T17:39:54.447Z,12.87
2022-11-29T17:42:23.233Z,11.13
2022-11-29T17:44:53.607Z,12.73
2022-11-29T17:47:25.004Z,12.47
2022-11-29T17:49:56.080Z,12.10
2022-11-29T17:52:24.609Z,12.90
2022-11-29T17:54:53.091Z,12.10
2022-11-29T17:57:22.801Z,12.07
2022-11-29T17:59:50.720Z,13.63
2022-11-29T18:02:21.971Z,12.00
2022-11-29T18:04:51.620Z,10.87
2022-11-29T18:07:20.035Z,12.80
2022-11-29T18:09:49.795Z,13.40
2022-11-29T18:12:20.517Z,12.17
2022-11-29T18:14:50.128Z,13.00
2022-11-29T18:17:21.346Z,11.70
2022-11-29T18:19:54.077Z,13.20
2022-11-29T18:22:22.961Z,11.93
2022-11-29T18:24:51.777Z,11.87
2022-11-29T18:27:21.608Z,11.40
2022-11-29T18:29:50.376Z,11.03
2022-11-29T18:32:18.779Z,11.20
2022-11-29T18:34:47.829Z,12.17
2022-11-29T18:37:28.394Z,12.80
2022-11-29T18:40:06.448Z,11.00
2022-11-29T18:42:34.468Z,11.87
2022-11-29T18:45:02.543Z,11.70
2022-11-29T18:47:33.450Z,11.50
2022-11-29T18:50:02.267Z,12.10
2022-11-29T18:52:35.338Z,12.03
2022-11-29T18:55:09.294Z,11.63
2022-11-29T18:57:37.736Z,12.53
2022-11-29T19:00:07.508Z,11.67
2022-11-29T19:02:36.854Z,12.17
2022-11-29T19:05:05.578Z,11.87
2022-11-29T19:07:38.845Z,12.43
2022-11-29T19:10:08.684Z,12.73
2022-11-29T19:12:39.170Z,12.97
2022-11-29T19:15:09.064Z,13.03
2022-11-29T19:17:42.853Z,11.13
2022-11-29T19:20:13.434Z,13.00
2022-11-29T19:22:43.380Z,12.27
2022-11-29T19:25:14.442Z,12.97
2022-11-29T19:27:48.444Z,12.80
2022-11-29T19:30:17.629Z,12.40
2022-11-29T19:32:45.937Z,12.63
2022-11-29T19:35:14.174Z,13.33
2022-11-29T19:37:48.681Z,13.70
2022-11-29T19:40:21.191Z,14.30
2022-11-29T19:42:49.589Z,13.63
2022-11-29T19:45:23.276Z,14.10
2022-11-29T19:47:54.871Z,14.43
2022-11-29T19:50:24.537Z,13.07
2022-11-29T19:52:55.332Z,14.03
2022-11-29T19:55:24.748Z,13.20
2022-11-29T19:57:53.532Z,14.60
2022-11-29T20:00:24.661Z,13.37
2022-11-29T20:02:52.840Z,13.87
2022-11-29T20:05:20.951Z,13.87
2022-11-29T20:07:49.971Z,13.47
2022-11-29T20:10:20.448Z,12.80
2022-11-29T20:12:50.911Z,12.97
2022-11-29T20:15:19.148Z,13.03
2022-11-29T20:17:48.962Z,14.37
2022-11-29T20:20:22.292Z,13.37
2022-11-29T20:22:54.663Z,13.30
2022-11-29T20:25:27.267Z,13.97
2022-11-29T20:27:56.263Z,13.50
2022-11-29T20:30:26.147Z,13.50
2022-11-29T20:32:56.775Z,14.50
2022-11-29T20:35:27.371Z,15.30
2022-11-29T20:38:08.166Z,15.03
2022-11-29T20:40:46.531Z,14.03
2022-11-29T20:43:24.980Z,15.60
2022-11-29T20:45:53.806Z,14.83
2022-11-29T20:48:24.401Z,13.10
2022-11-29T20:51:00.742Z,14.37
2022-11-29T20:53:35.435Z,14.67
2022-11-29T20:56:06.562Z,15.60
2022-11-29T20:58:36.170Z,14.57
2022-11-29T21:01:08.297Z,12.23
2022-11-29T21:03:39.095Z,12.57
2022-11-29T21:06:10.223Z,12.10
2022-11-29T21:08:38.771Z,12.13
2022-11-29T21:11:10.542Z,12.30
2022-11-29T21:13:40.064Z,13.73
2022-11-29T21:16:11.824Z,12.73
2022-11-29T21:18:44.014Z,11.53
2022-11-29T21:21:25.050Z,11.07
2022-11-29T21:24:03.747Z,13.67
2022-11-29T21:26:41.979Z,12.77
2022-11-29T21:29:17.012Z,12.73
2022-11-29T21:31:46.516Z,14.30
2022-11-29T21:34:15.182Z,15.03
2022-11-29T21:36:44.917Z,13.57
2022-11-29T21:39:18.867Z,11.60
2022-11-29T21:41:49.977Z,13.10
2022-11-29T21:44:18.344Z,13.73
2022-11-29T21:46:47.524Z,14.13
2022-11-29T21:49:16.648Z,12.80
2022-11-29T21:51:45.336Z,13.57
2022-11-29T21:54:14.844Z,13.43
2022-11-29T21:56:43.637Z,13.23
2022-11-29T21:59:13.573Z,13.57
2022-11-29T22:01:43.046Z,12.97
2022-11-29T22:04:11.884Z,13.17
2022-11-29T22:06:40.833Z,13.60
2022-11-29T22:09:09.207Z,14.10
2022-11-29T22:11:38.399Z,12.37
2022-11-29T22:14:18.363Z,13.20
2022-11-29T22:16:50.382Z,12.53
2022-11-29T22:19:20.693Z,13.67
2022-11-29T22:21:51.153Z,13.27
2022-11-29T22:24:21.636Z,12.63
2022-11-29T22:26:51.646Z,14.20
2022-11-29T22:29:20.945Z,14.70
2022-11-29T22:31:52.969Z,13.53
2022-11-29T22:34:21.725Z,14.10
2022-11-29T22:36:50.205Z,12.73
2022-11-29T22:39:19.306Z,14.47
2022-11-29T22:41:54.693Z,13.93
2022-11-29T22:44:23.624Z,12.53
2022-11-29T22:46:56.263Z,13.77
2022-11-29T22:49:25.085Z,13.00
2022-11-29T22:51:53.460Z,14.73
2022-11-29T22:54:21.562Z,13.70
2022-11-29T22:56:52.213Z,13.40
2022-11-29T22:59:20.502Z,13.30
2022-11-29T23:01:49.782Z,14.27
2022-11-29T23:04:20.026Z,14.67
2022-11-29T23:06:48.237Z,12.67
2022-11-29T23:09:21.676Z,15.43
2022-11-29T23:11:58.660Z,14.90
2022-11-29T23:14:28.125Z,15.93
2022-11-29T23:16:56.983Z,15.27
2022-11-29T23:19:27.459Z,14.30
2022-11-29T23:21:56.531Z,14.60
2022-11-29T23:24:25.779Z,14.33
2022-11-29T23:26:55.832Z,14.93
2022-11-29T23:29:27.413Z,15.73
2022-11-29T23:31:55.390Z,14.10
2022-11-29T23:34:29.392Z,14.93
2022-11-29T23:36:57.430Z,14.77
2022-11-29T23:39:30.286Z,14.70
2022-11-29T23:41:59.738Z,14.60
2022-11-29T23:44:31.234Z,15.23
2022-11-29T23:47:03.482Z,15.23
2022-11-29T23:49:35.293Z,14.43
2022-11-29T23:52:04.217Z,14.10
2022-11-29T23:54:32.294Z,16.43
2022-11-29T23:57:00.895Z,12.93
2022-11-29T23:59:30.474Z,14.40
